createdAt,value
2023-04-26T00:00:10.241Z,99463.34
2023-04-26T00:02:40.212Z,99468.28
2023-04-26T00:05:11.655Z,99460.50
2023-04-26T00:07:40.316Z,99474.56
2023-04-26T00:10:10.645Z,99468.13
2023-04-26T00:12:41.262Z,99477.47
2023-04-26T00:15:11.037Z,99477.66
2023-04-26T00:17:39.859Z,99484.47
2023-04-26T00:20:13.027Z,99484.25
2023-04-26T00:22:41.814Z,99486.00
2023-04-26T00:25:11.491Z,99483.81
2023-04-26T00:27:40.332Z,99494.38
2023-04-26T00:30:11.296Z,99496.72
2023-04-26T00:32:40.311Z,99495.84
2023-04-26T00:35:11.896Z,99506.72
2023-04-26T00:37:40.443Z,99512.19
2023-04-26T00:40:10.523Z,99508.53
2023-04-26T00:42:39.576Z,99508.59
2023-04-26T00:45:09.491Z,99507.06
2023-04-26T00:47:38.601Z,99506.97
2023-04-26T00:50:10.710Z,99513.22
2023-04-26T00:52:39.248Z,99508.44
2023-04-26T00:55:09.324Z,99514.81
2023-04-26T00:57:38.242Z,99513.91
2023-04-26T01:00:08.294Z,99516.28
2023-04-26T01:02:37.861Z,99523.22
2023-04-26T01:05:11.094Z,99520.22
2023-04-26T01:07:40.082Z,99527.03
2023-04-26T01:10:10.543Z,99522.19
2023-04-26T01:12:39.901Z,99530.81
2023-04-26T01:15:09.726Z,99529.13
2023-04-26T01:17:39.424Z,99529.53
2023-04-26T01:20:12.220Z,99523.94
2023-04-26T01:22:42.775Z,99530.34
2023-04-26T01:25:13.794Z,99529.78
2023-04-26T01:27:42.999Z,99536.25
2023-04-26T01:30:12.681Z,99527.66
2023-04-26T01:32:41.657Z,99527.97
2023-04-26T01:35:11.180Z,99531.47
2023-04-26T01:37:39.691Z,99531.91
2023-04-26T01:40:11.527Z,99535.78
2023-04-26T01:42:40.535Z,99535.75
2023-04-26T01:45:09.829Z,99537.28
2023-04-26T01:47:59.391Z,99533.78
2023-04-26T01:50:28.312Z,99530.34
2023-04-26T01:52:56.761Z,99525.81
2023-04-26T01:55:27.155Z,99532.28
2023-04-26T01:57:55.753Z,99530.84
2023-04-26T02:00:24.750Z,99517.09
2023-04-26T02:02:56.726Z,99535.84
2023-04-26T02:05:26.035Z,99536.72
2023-04-26T02:07:54.615Z,99540.84
2023-04-26T02:10:23.495Z,99542.97
2023-04-26T02:12:54.152Z,99540.81
2023-04-26T02:15:23.091Z,99547.84
2023-04-26T02:17:53.790Z,99545.50
2023-04-26T02:20:23.062Z,99543.09
2023-04-26T02:22:52.122Z,99550.03
2023-04-26T02:25:21.454Z,99548.59
2023-04-26T02:27:50.249Z,99546.56
2023-04-26T02:30:20.599Z,99549.09
2023-04-26T02:32:49.670Z,99547.94
2023-04-26T02:35:19.652Z,99548.22
2023-04-26T02:37:49.238Z,99552.59
2023-04-26T02:40:18.165Z,99549.38
2023-04-26T02:42:47.202Z,99543.31
2023-04-26T02:45:16.339Z,99550.44
2023-04-26T02:47:46.709Z,99550.50
2023-04-26T02:50:15.274Z,99550.72
2023-04-26T02:52:43.734Z,99546.72
2023-04-26T02:55:12.616Z,99547.94
2023-04-26T02:57:41.739Z,99550.75
2023-04-26T03:00:14.164Z,99549.97
2023-04-26T03:02:43.484Z,99552.56
2023-04-26T03:05:14.088Z,99551.63
2023-04-26T03:07:42.889Z,99551.63
2023-04-26T03:10:12.426Z,99550.09
2023-04-26T03:12:42.525Z,99551.63
2023-04-26T03:15:11.832Z,99554.25
2023-04-26T03:17:43.400Z,99552.25
2023-04-26T03:20:15.164Z,99552.41
2023-04-26T03:22:43.682Z,99552.41
2023-04-26T03:25:13.330Z,99558.47
2023-04-26T03:27:42.262Z,99567.06
2023-04-26T03:30:11.983Z,99564.59
2023-04-26T03:32:42.419Z,99565.06
2023-04-26T03:35:11.662Z,99566.09
2023-04-26T03:37:41.654Z,99575.72
2023-04-26T03:40:14.177Z,99574.75
2023-04-26T03:42:43.053Z,99577.94
2023-04-26T03:45:12.491Z,99571.78
2023-04-26T03:47:41.406Z,99576.44
2023-04-26T03:50:11.284Z,99581.44
2023-04-26T03:52:39.699Z,99577.25
2023-04-26T03:55:11.995Z,99575.19
2023-04-26T03:57:41.482Z,99582.28
2023-04-26T04:00:12.244Z,99586.16
2023-04-26T04:02:44.344Z,99585.47
2023-04-26T04:05:19.136Z,99592.09
2023-04-26T04:07:47.745Z,99597.31
2023-04-26T04:10:18.065Z,99592.03
2023-04-26T04:12:47.565Z,99587.66
2023-04-26T04:15:17.457Z,99581.22
2023-04-26T04:17:48.672Z,99589.00
2023-04-26T04:20:17.708Z,99589.00
2023-04-26T04:22:46.346Z,99595.75
2023-04-26T04:25:15.292Z,99593.28
2023-04-26T04:27:45.640Z,99594.13
2023-04-26T04:30:14.882Z,99595.41
2023-04-26T04:32:47.020Z,99594.69
2023-04-26T04:35:18.201Z,99594.63
2023-04-26T04:37:46.969Z,99601.19
2023-04-26T04:40:16.086Z,99603.81
2023-04-26T04:42:49.338Z,99605.63
2023-04-26T04:45:19.985Z,99608.81
2023-04-26T04:47:50.554Z,99611.72
2023-04-26T04:50:19.662Z,99609.63
2023-04-26T04:52:48.937Z,99619.50
2023-04-26T04:55:18.177Z,99620.44
2023-04-26T04:57:48.561Z,99620.25
2023-04-26T05:00:18.710Z,99615.19
2023-04-26T05:03:04.714Z,99619.56
2023-04-26T05:05:33.697Z,99629.88
2023-04-26T05:08:02.965Z,99630.28
2023-04-26T05:10:31.447Z,99631.41
2023-04-26T05:13:01.915Z,99637.03
2023-04-26T05:15:31.206Z,99634.72
2023-04-26T05:18:01.281Z,99640.63
2023-04-26T05:20:31.385Z,99642.19
2023-04-26T05:23:00.479Z,99648.28
2023-04-26T05:25:29.108Z,99649.41
2023-04-26T05:28:12.923Z,99649.31
2023-04-26T05:31:02.054Z,99651.19
2023-04-26T05:34:06.204Z,99649.63
2023-04-26T05:36:42.387Z,99661.47
2023-04-26T05:39:12.482Z,99653.25
2023-04-26T05:41:41.595Z,99646.13
2023-04-26T05:44:12.134Z,99668.94
2023-04-26T05:46:40.632Z,99650.38
2023-04-26T05:49:11.360Z,99651.34
2023-04-26T05:51:40.275Z,99654.16
2023-04-26T05:54:09.089Z,99643.97
2023-04-26T05:56:38.172Z,99649.19
2023-04-26T05:59:07.140Z,99649.19
2023-04-26T06:01:37.345Z,99650.91
2023-04-26T06:04:07.274Z,99652.13
2023-04-26T06:06:46.936Z,99655.81
2023-04-26T06:09:18.369Z,99652.91
2023-04-26T06:11:48.952Z,99658.94
2023-04-26T06:14:29.513Z,99662.38
2023-04-26T06:17:04.680Z,99660.75
2023-04-26T06:19:34.080Z,99655.34
2023-04-26T06:22:02.999Z,99647.91
2023-04-26T06:24:32.062Z,99651.75
2023-04-26T06:27:01.445Z,99652.16
2023-04-26T06:29:34.188Z,99657.59
2023-04-26T06:32:05.181Z,99653.47
2023-04-26T06:34:34.979Z,99660.53
2023-04-26T06:37:04.294Z,99647.44
2023-04-26T06:39:34.155Z,99658.00
2023-04-26T06:42:03.401Z,99664.56
2023-04-26T06:44:50.829Z,99671.06
2023-04-26T06:47:21.293Z,99664.28
2023-04-26T06:49:49.764Z,99676.31
2023-04-26T06:52:20.539Z,99662.47
2023-04-26T06:54:56.882Z,99663.31
2023-04-26T06:57:27.193Z,99662.47
2023-04-26T06:59:56.105Z,99660.44
2023-04-26T07:02:26.577Z,99670.75
2023-04-26T07:04:55.531Z,99669.69
2023-04-26T07:07:24.534Z,99671.13
2023-04-26T07:09:54.224Z,99669.16
2023-04-26T07:12:22.973Z,99659.50
2023-04-26T07:14:51.854Z,99672.09
2023-04-26T07:17:21.670Z,99671.28
2023-04-26T07:19:51.706Z,99678.97
2023-04-26T07:22:21.744Z,99668.16
2023-04-26T07:24:50.635Z,99676.75
2023-04-26T07:27:19.497Z,99675.66
2023-04-26T07:29:49.060Z,99670.84
2023-04-26T07:32:18.153Z,99681.94
2023-04-26T07:34:47.148Z,99670.28
2023-04-26T07:37:17.598Z,99680.81
2023-04-26T07:39:46.483Z,99675.72
2023-04-26T07:42:15.554Z,99674.59
2023-04-26T07:44:44.586Z,99690.00
2023-04-26T07:47:14.648Z,99677.50
2023-04-26T07:49:44.382Z,99680.78
2023-04-26T07:52:14.735Z,99694.03
2023-04-26T07:54:47.068Z,99693.88
2023-04-26T07:57:16.579Z,99700.78
2023-04-26T07:59:45.533Z,99702.53
2023-04-26T08:02:14.601Z,99702.75
2023-04-26T08:04:49.785Z,99707.91
2023-04-26T08:07:18.840Z,99707.16
2023-04-26T08:09:50.309Z,99696.44
2023-04-26T08:12:19.637Z,99705.88
2023-04-26T08:14:48.663Z,99697.88
2023-04-26T08:17:17.795Z,99714.88
2023-04-26T08:19:46.625Z,99704.69
2023-04-26T08:22:15.697Z,99715.91
2023-04-26T08:24:51.309Z,99705.81
2023-04-26T08:27:20.477Z,99707.25
2023-04-26T08:29:49.757Z,99711.63
2023-04-26T08:32:19.014Z,99709.13
2023-04-26T08:34:48.869Z,99716.47
2023-04-26T08:37:17.856Z,99709.72
2023-04-26T08:39:47.005Z,99705.75
2023-04-26T08:42:18.736Z,99693.78
2023-04-26T08:44:47.902Z,99697.59
2023-04-26T08:47:20.038Z,99714.72
2023-04-26T08:49:50.445Z,99720.41
2023-04-26T08:52:23.471Z,99717.19
2023-04-26T08:54:53.564Z,99719.81
2023-04-26T08:57:24.220Z,99709.91
2023-04-26T08:59:53.481Z,99726.03
2023-04-26T09:02:24.295Z,99720.47
2023-04-26T09:04:53.283Z,99714.09
2023-04-26T09:07:23.341Z,99717.38
2023-04-26T09:09:52.396Z,99723.28
2023-04-26T09:12:21.645Z,99722.97
2023-04-26T09:14:52.127Z,99742.00
2023-04-26T09:17:27.002Z,99736.94
2023-04-26T09:19:55.992Z,99756.91
2023-04-26T09:22:32.525Z,99741.22
2023-04-26T09:25:02.244Z,99753.97
2023-04-26T09:27:35.143Z,99762.13
2023-04-26T09:30:11.122Z,99750.16
2023-04-26T09:32:48.421Z,99745.31
2023-04-26T09:35:23.493Z,99728.25
2023-04-26T09:38:00.194Z,99741.34
2023-04-26T09:40:32.020Z,99740.91
2023-04-26T09:43:02.850Z,99741.38
2023-04-26T09:45:34.297Z,99752.16
2023-04-26T09:48:17.388Z,99746.28
2023-04-26T09:50:47.344Z,99751.41
2023-04-26T09:53:37.413Z,99747.47
2023-04-26T09:56:10.421Z,99756.88
2023-04-26T09:58:40.288Z,99757.97
2023-04-26T10:01:12.350Z,99746.31
2023-04-26T10:03:42.935Z,99744.34
2023-04-26T10:06:13.708Z,99753.84
2023-04-26T10:08:42.751Z,99752.38
2023-04-26T10:11:12.741Z,99743.97
2023-04-26T10:13:41.836Z,99754.16
2023-04-26T10:16:12.367Z,99740.09
2023-04-26T10:18:41.435Z,99749.84
2023-04-26T10:21:13.749Z,99765.38
2023-04-26T10:23:42.953Z,99746.59
2023-04-26T10:26:44.830Z,99735.19
2023-04-26T10:29:13.554Z,99726.66
2023-04-26T10:32:10.202Z,99744.97
2023-04-26T10:34:39.625Z,99726.97
2023-04-26T10:37:09.760Z,99760.75
2023-04-26T10:39:39.250Z,99777.44
2023-04-26T10:42:25.637Z,99758.75
2023-04-26T10:44:56.086Z,99771.94
2023-04-26T10:47:28.895Z,99772.66
2023-04-26T10:50:08.957Z,99787.97
2023-04-26T10:52:37.932Z,99776.97
2023-04-26T10:55:08.120Z,99783.09
2023-04-26T10:57:49.580Z,99773.97
2023-04-26T11:00:29.164Z,99784.44
2023-04-26T11:03:05.894Z,99788.41
2023-04-26T11:05:43.747Z,99787.22
2023-04-26T11:08:18.438Z,99792.53
2023-04-26T11:10:52.407Z,99801.03
2023-04-26T11:13:21.987Z,99798.72
2023-04-26T11:15:54.782Z,99803.38
2023-04-26T11:18:25.699Z,99795.09
2023-04-26T11:20:55.211Z,99801.38
2023-04-26T11:23:25.054Z,99796.63
2023-04-26T11:25:55.139Z,99811.66
2023-04-26T11:28:24.656Z,99804.81
2023-04-26T11:30:54.170Z,99794.88
2023-04-26T11:33:24.720Z,99806.72
2023-04-26T11:35:54.402Z,99805.94
2023-04-26T11:38:24.655Z,99807.16
2023-04-26T11:40:57.707Z,99812.44
2023-04-26T11:43:32.585Z,99809.78
2023-04-26T11:46:02.006Z,99805.47
2023-04-26T11:48:33.604Z,99806.09
2023-04-26T11:51:04.875Z,99823.81
2023-04-26T11:53:37.760Z,99814.28
2023-04-26T11:56:07.874Z,99813.63
2023-04-26T11:58:36.399Z,99829.59
2023-04-26T12:01:05.439Z,99827.22
2023-04-26T12:03:38.085Z,99814.28
2023-04-26T12:06:07.669Z,99821.34
2023-04-26T12:08:36.922Z,99822.22
2023-04-26T12:11:06.032Z,99830.84
2023-04-26T12:13:34.510Z,99818.03
2023-04-26T12:16:22.373Z,99835.19
2023-04-26T12:18:57.131Z,99827.28
2023-04-26T12:21:30.311Z,99823.63
2023-04-26T12:23:59.766Z,99841.63
2023-04-26T12:26:45.001Z,99822.81
2023-04-26T12:29:14.211Z,99837.59
2023-04-26T12:31:42.816Z,99837.31
2023-04-26T12:34:13.238Z,99835.00
2023-04-26T12:36:43.325Z,99844.44
2023-04-26T12:39:13.800Z,99812.25
2023-04-26T12:41:42.809Z,99836.59
2023-04-26T12:44:12.840Z,99849.59
2023-04-26T12:46:41.725Z,99840.09
2023-04-26T12:49:12.302Z,99844.94
2023-04-26T12:51:41.432Z,99860.00
2023-04-26T12:54:10.223Z,99860.22
2023-04-26T12:56:43.849Z,99866.91
2023-04-26T12:59:12.979Z,99868.56
2023-04-26T13:01:41.637Z,99864.72
2023-04-26T13:04:11.034Z,99865.00
2023-04-26T13:06:41.808Z,99874.03
2023-04-26T13:09:12.988Z,99874.00
2023-04-26T13:11:42.165Z,99878.44
2023-04-26T13:14:11.336Z,99882.75
2023-04-26T13:16:43.895Z,99869.78
2023-04-26T13:19:12.881Z,99874.13
2023-04-26T13:21:43.318Z,99868.09
2023-04-26T13:24:12.197Z,99881.31
2023-04-26T13:26:41.103Z,99862.94
2023-04-26T13:29:09.981Z,99867.31
2023-04-26T13:31:40.044Z,99874.13
2023-04-26T13:34:09.862Z,99871.09
2023-04-26T13:36:38.713Z,99881.41
2023-04-26T13:39:09.158Z,99877.44
2023-04-26T13:41:38.262Z,99884.06
2023-04-26T13:44:07.175Z,99876.25
2023-04-26T13:46:36.434Z,99893.88
2023-04-26T13:49:05.609Z,99901.72
2023-04-26T13:51:34.948Z,99903.34
2023-04-26T13:54:03.892Z,99889.94
2023-04-26T13:56:34.793Z,99883.06
2023-04-26T13:59:05.489Z,99882.06
2023-04-26T14:01:36.065Z,99889.88
2023-04-26T14:04:30.130Z,99891.34
2023-04-26T14:06:59.662Z,99903.75
2023-04-26T14:09:28.587Z,99902.53
2023-04-26T14:12:07.884Z,99913.47
2023-04-26T14:14:37.863Z,99915.88
2023-04-26T14:17:06.745Z,99914.50
2023-04-26T14:19:35.205Z,99919.28
2023-04-26T14:22:04.181Z,99924.78
2023-04-26T14:24:33.080Z,99932.22
2023-04-26T14:27:04.129Z,99925.31
2023-04-26T14:29:33.105Z,99926.13
2023-04-26T14:32:02.057Z,99936.16
2023-04-26T14:34:30.635Z,99937.47
2023-04-26T14:37:01.703Z,99949.22
2023-04-26T14:39:30.638Z,99944.16
2023-04-26T14:41:59.706Z,99945.06
2023-04-26T14:44:30.072Z,99944.84
2023-04-26T14:46:58.540Z,99942.31
2023-04-26T14:49:27.351Z,99940.13
2023-04-26T14:51:56.276Z,99948.00
2023-04-26T14:54:26.502Z,99944.31
2023-04-26T14:56:55.423Z,99965.28
2023-04-26T14:59:24.473Z,99956.09
2023-04-26T15:01:54.663Z,99954.41
2023-04-26T15:04:23.970Z,99956.72
2023-04-26T15:06:53.100Z,99959.28
2023-04-26T15:09:22.530Z,99958.38
2023-04-26T15:11:51.372Z,99961.59
2023-04-26T15:14:20.561Z,99964.16
2023-04-26T15:16:49.200Z,99970.69
2023-04-26T15:19:19.526Z,99981.53
2023-04-26T15:21:48.433Z,99972.75
2023-04-26T15:24:17.334Z,99975.94
2023-04-26T15:26:46.504Z,99981.22
2023-04-26T15:29:15.435Z,99992.16
2023-04-26T15:31:43.987Z,99983.34
2023-04-26T15:34:12.971Z,99985.00
2023-04-26T15:36:43.209Z,99978.63
2023-04-26T15:39:12.266Z,99977.44
2023-04-26T15:41:41.162Z,99979.91
2023-04-26T15:44:10.049Z,99983.16
2023-04-26T15:46:38.753Z,99975.94
2023-04-26T15:49:07.769Z,99970.22
2023-04-26T15:51:36.734Z,99976.31
2023-04-26T15:54:07.914Z,99978.16
2023-04-26T15:56:36.808Z,99966.97
2023-04-26T15:59:05.753Z,99968.84
2023-04-26T16:01:34.549Z,99969.88
2023-04-26T16:04:28.933Z,99967.69
2023-04-26T16:06:57.940Z,99970.03
2023-04-26T16:09:28.234Z,99969.34
2023-04-26T16:11:57.125Z,99969.94
2023-04-26T16:14:26.383Z,99972.59
2023-04-26T16:16:54.878Z,99976.91
2023-04-26T16:19:27.076Z,99976.84
2023-04-26T16:21:56.460Z,99980.00
2023-04-26T16:24:25.608Z,99983.41
2023-04-26T16:26:56.035Z,99981.75
2023-04-26T16:29:25.119Z,99985.75
2023-04-26T16:31:54.149Z,99992.53
2023-04-26T16:34:23.202Z,99990.44
2023-04-26T16:36:52.047Z,99985.00
2023-04-26T16:39:21.657Z,99985.56
2023-04-26T16:41:51.108Z,99997.63
2023-04-26T16:44:21.450Z,99996.34
2023-04-26T16:46:49.969Z,99999.78
2023-04-26T16:49:18.866Z,99998.00
2023-04-26T16:51:53.474Z,99996.78
2023-04-26T16:54:22.512Z,99998.53
2023-04-26T16:56:51.533Z,100000.94
2023-04-26T16:59:22.847Z,99999.41
2023-04-26T17:01:52.166Z,100003.44
2023-04-26T17:04:21.319Z,100003.28
2023-04-26T17:06:50.438Z,100004.38
2023-04-26T17:09:20.021Z,100005.47
2023-04-26T17:11:50.086Z,100002.41
2023-04-26T17:14:19.062Z,100007.22
2023-04-26T17:16:49.339Z,100013.34
2023-04-26T17:19:18.466Z,100014.09
2023-04-26T17:21:47.628Z,100015.28
2023-04-26T17:24:17.644Z,100020.50
2023-04-26T17:26:47.205Z,100024.19
2023-04-26T17:29:16.363Z,100019.75
2023-04-26T17:31:45.176Z,100023.47
2023-04-26T17:34:16.111Z,100035.81
2023-04-26T17:36:46.183Z,100020.66
2023-04-26T17:39:15.033Z,100032.47
2023-04-26T17:41:43.963Z,100032.19
2023-04-26T17:44:12.906Z,100033.81
2023-04-26T17:46:41.618Z,100035.03
2023-04-26T17:49:11.890Z,100040.41
2023-04-26T17:51:42.177Z,100042.50
2023-04-26T17:54:10.818Z,100045.31
2023-04-26T17:56:39.641Z,100053.56
2023-04-26T17:59:08.570Z,100052.91
2023-04-26T18:01:37.416Z,100056.25
2023-04-26T18:04:06.706Z,100056.28
2023-04-26T18:06:36.894Z,100064.09
2023-04-26T18:09:08.715Z,100065.19
2023-04-26T18:11:37.695Z,100071.44
2023-04-26T18:14:06.603Z,100064.03
2023-04-26T18:16:35.203Z,100066.75
2023-04-26T18:19:04.173Z,100073.00
2023-04-26T18:21:33.164Z,100068.31
2023-04-26T18:24:02.093Z,100077.84
2023-04-26T18:26:32.408Z,100077.44
2023-04-26T18:29:01.254Z,100077.34
2023-04-26T18:31:32.459Z,100079.56
2023-04-26T18:34:02.088Z,100081.94
2023-04-26T18:36:32.250Z,100077.66
2023-04-26T18:39:01.323Z,100079.16
2023-04-26T18:41:31.751Z,100079.56
2023-04-26T18:44:00.402Z,100089.44
2023-04-26T18:46:28.945Z,100084.84
2023-04-26T18:48:57.817Z,100091.84
2023-04-26T18:51:26.804Z,100093.13
2023-04-26T18:53:55.618Z,100092.16
2023-04-26T18:56:24.462Z,100094.13
2023-04-26T18:58:54.382Z,100097.47
2023-04-26T19:01:23.002Z,100100.81
2023-04-26T19:03:52.154Z,100103.97
2023-04-26T19:06:21.669Z,100105.25
2023-04-26T19:08:51.610Z,100111.34
2023-04-26T19:11:20.559Z,100112.63
2023-04-26T19:13:48.989Z,100113.31
2023-04-26T19:16:19.293Z,100110.25
2023-04-26T19:18:49.203Z,100112.75
2023-04-26T19:21:18.065Z,100114.41
2023-04-26T19:23:46.889Z,100120.78
2023-04-26T19:26:16.472Z,100121.09
2023-04-26T19:28:45.004Z,100115.81
2023-04-26T19:31:14.331Z,100119.00
2023-04-26T19:33:46.104Z,100111.63
2023-04-26T19:36:15.203Z,100108.56
2023-04-26T19:38:44.050Z,100119.97
2023-04-26T19:41:13.319Z,100119.13
2023-04-26T19:43:41.876Z,100123.03
2023-04-26T19:46:13.849Z,100119.97
2023-04-26T19:48:44.441Z,100123.44
2023-04-26T19:51:17.296Z,100122.28
2023-04-26T19:53:46.304Z,100122.13
2023-04-26T19:56:15.173Z,100127.91
2023-04-26T19:58:43.687Z,100121.22
2023-04-26T20:01:12.568Z,100131.34
2023-04-26T20:03:41.977Z,100123.84
2023-04-26T20:06:14.089Z,100129.94
2023-04-26T20:08:43.653Z,100124.69
2023-04-26T20:11:15.287Z,100134.38
2023-04-26T20:13:44.255Z,100131.06
2023-04-26T20:16:14.449Z,100129.66
2023-04-26T20:18:43.456Z,100129.47
2023-04-26T20:21:13.779Z,100135.50
2023-04-26T20:23:42.923Z,100133.84
2023-04-26T20:26:12.194Z,100134.22
2023-04-26T20:28:40.727Z,100146.97
2023-04-26T20:31:09.606Z,100140.63
2023-04-26T20:33:38.552Z,100148.88
2023-04-26T20:36:08.366Z,100146.97
2023-04-26T20:38:39.035Z,100142.41
2023-04-26T20:41:08.090Z,100143.06
2023-04-26T20:43:36.606Z,100140.41
2023-04-26T20:46:05.590Z,100144.06
2023-04-26T20:48:34.599Z,100139.91
2023-04-26T20:51:03.505Z,100142.66
2023-04-26T20:53:32.348Z,100145.88
2023-04-26T20:56:02.651Z,100148.41
2023-04-26T20:58:31.305Z,100146.25
2023-04-26T21:01:00.584Z,100145.06
2023-04-26T21:03:29.676Z,100148.81
2023-04-26T21:05:58.729Z,100148.34
2023-04-26T21:08:27.673Z,100142.84
2023-04-26T21:10:56.197Z,100154.81
2023-04-26T21:13:26.848Z,100154.09
2023-04-26T21:15:55.912Z,100156.75
2023-04-26T21:18:24.904Z,100161.66
2023-04-26T21:20:53.862Z,100161.75
2023-04-26T21:23:22.804Z,100166.44
2023-04-26T21:25:51.422Z,100174.00
2023-04-26T21:28:20.306Z,100170.78
2023-04-26T21:30:50.567Z,100165.75
2023-04-26T21:33:19.641Z,100175.31
2023-04-26T21:35:48.577Z,100170.19
2023-04-26T21:38:17.670Z,100177.38
2023-04-26T21:40:46.253Z,100177.84
2023-04-26T21:43:16.140Z,100187.56
2023-04-26T21:45:45.134Z,100188.28
2023-04-26T21:48:15.753Z,100188.63
2023-04-26T21:50:44.939Z,100190.16
2023-04-26T21:53:14.110Z,100197.31
2023-04-26T21:55:42.836Z,100199.94
2023-04-26T21:58:11.695Z,100199.47
2023-04-26T22:00:40.674Z,100203.53
2023-04-26T22:03:09.832Z,100204.75
2023-04-26T22:05:40.673Z,100209.03
2023-04-26T22:08:09.328Z,100206.94
2023-04-26T22:10:37.514Z,100211.72
2023-04-26T22:13:06.369Z,100214.69
2023-04-26T22:15:34.991Z,100218.03
2023-04-26T22:18:03.624Z,100217.09
2023-04-26T22:20:32.197Z,100218.16
2023-04-26T22:23:02.074Z,100217.94
2023-04-26T22:25:30.201Z,100224.38
2023-04-26T22:27:58.828Z,100222.84
2023-04-26T22:30:27.333Z,100226.78
2023-04-26T22:32:57.506Z,100227.97
2023-04-26T22:35:26.349Z,100224.03
2023-04-26T22:37:54.543Z,100234.69
2023-04-26T22:40:24.468Z,100234.91
2023-04-26T22:42:54.079Z,100230.84
2023-04-26T22:45:22.946Z,100236.59
2023-04-26T22:47:51.659Z,100237.66
2023-04-26T22:50:20.273Z,100246.47
2023-04-26T22:52:49.750Z,100244.94
2023-04-26T22:55:18.459Z,100252.06
2023-04-26T22:57:48.453Z,100252.53
2023-04-26T23:00:17.518Z,100255.78
2023-04-26T23:02:46.357Z,100257.53
2023-04-26T23:05:14.967Z,100257.28
2023-04-26T23:07:43.146Z,100263.41
2023-04-26T23:10:12.287Z,100262.78
2023-04-26T23:12:41.870Z,100258.13
2023-04-26T23:15:12.698Z,100263.41
2023-04-26T23:17:41.975Z,100268.41
2023-04-26T23:20:14.510Z,100267.56
2023-04-26T23:22:43.792Z,100268.63
2023-04-26T23:25:12.286Z,100268.53
2023-04-26T23:27:41.033Z,100274.22
2023-04-26T23:30:13.948Z,100271.47
2023-04-26T23:32:42.795Z,100273.72
2023-04-26T23:35:11.449Z,100282.56
2023-04-26T23:37:39.805Z,100273.72
2023-04-26T23:40:10.334Z,100277.16
2023-04-26T23:42:38.898Z,100274.34
2023-04-26T23:45:09.207Z,100280.63
2023-04-26T23:47:39.047Z,100281.56
2023-04-26T23:50:08.951Z,100283.31
2023-04-26T23:52:37.079Z,100283.09
2023-04-26T23:55:06.809Z,100288.72
2023-04-26T23:57:35.681Z,100280.56
